sensor_id;sensor_type;location;lat;lon;timestamp;P1;durP1;ratioP1;P2;durP2;ratioP2
53285;SDS011;39171;45.550;12.074;2022-08-19T07:13:08;1.00;;;0.60;;
53285;SDS011;39171;45.550;12.074;2022-08-19T07:19:10;0.60;;;0.45;;
53285;SDS011;39171;45.550;12.074;2022-08-19T07:25:11;1.15;;;0.40;;
53285;SDS011;39171;45.550;12.074;2022-08-19T07:31:18;1.45;;;0.63;;
53285;SDS011;39171;45.550;12.074;2022-08-19T07:37:21;0.70;;;0.40;;
53285;SDS011;39171;45.550;12.074;2022-08-19T07:43:23;0.63;;;0.40;;
53285;SDS011;39171;45.550;12.074;2022-08-19T07:49:28;1.10;;;0.50;;
53285;SDS011;39171;45.550;12.074;2022-08-19T07:55:30;0.82;;;0.50;;
53285;SDS011;39171;45.550;12.074;2022-08-19T08:01:39;0.55;;;0.40;;
53285;SDS011;39171;45.550;12.074;2022-08-19T08:07:41;0.70;;;0.40;;
53285;SDS011;39171;45.550;12.074;2022-08-19T08:14:01;0.88;;;0.40;;
53285;SDS011;39171;45.550;12.074;2022-08-19T08:20:12;0.77;;;0.47;;
53285;SDS011;39171;45.550;12.074;2022-08-19T08:26:17;0.85;;;0.50;;
53285;SDS011;39171;45.550;12.074;2022-08-19T08:32:19;0.70;;;0.50;;
53285;SDS011;39171;45.550;12.074;2022-08-19T08:38:21;0.80;;;0.50;;
53285;SDS011;39171;45.550;12.074;2022-08-19T08:44:28;0.77;;;0.30;;
53285;SDS011;39171;45.550;12.074;2022-08-19T08:50:41;1.08;;;0.50;;
53285;SDS011;39171;45.550;12.074;2022-08-19T08:56:46;0.88;;;0.52;;
53285;SDS011;39171;45.550;12.074;2022-08-19T09:02:50;0.45;;;0.40;;
53285;SDS011;39171;45.550;12.074;2022-08-19T09:15:05;0.82;;;0.50;;
53285;SDS011;39171;45.550;12.074;2022-08-19T09:21:10;0.80;;;0.40;;
53285;SDS011;39171;45.550;12.074;2022-08-19T09:27:11;0.80;;;0.50;;
53285;SDS011;39171;45.550;12.074;2022-08-19T09:33:13;0.80;;;0.40;;
53285;SDS011;39171;45.550;12.074;2022-08-19T09:39:16;1.23;;;0.55;;
53285;SDS011;39171;45.550;12.074;2022-08-19T09:45:19;0.93;;;0.50;;
53285;SDS011;39171;45.550;12.074;2022-08-19T09:51:23;1.05;;;0.50;;
53285;SDS011;39171;45.550;12.074;2022-08-19T09:57:29;0.82;;;0.47;;
53285;SDS011;39171;45.550;12.074;2022-08-19T10:03:31;0.60;;;0.40;;
53285;SDS011;39171;45.550;12.074;2022-08-19T10:09:35;0.75;;;0.43;;
53285;SDS011;39171;45.550;12.074;2022-08-19T10:15:37;0.50;;;0.28;;
53285;SDS011;39171;45.550;12.074;2022-08-19T10:21:46;0.65;;;0.47;;
53285;SDS011;39171;45.550;12.074;2022-08-19T10:27:47;0.30;;;0.20;;
53285;SDS011;39171;45.550;12.074;2022-08-19T10:33:49;0.38;;;0.30;;
53285;SDS011;39171;45.550;12.074;2022-08-19T10:39:58;0.70;;;0.50;;
53285;SDS011;39171;45.550;12.074;2022-08-19T10:45:59;0.50;;;0.30;;
53285;SDS011;39171;45.550;12.074;2022-08-19T10:52:01;0.40;;;0.32;;
53285;SDS011;39171;45.550;12.074;2022-08-19T10:58:22;0.90;;;0.30;;
53285;SDS011;39171;45.550;12.074;2022-08-19T11:04:24;0.30;;;0.30;;
53285;SDS011;39171;45.550;12.074;2022-08-19T11:10:25;0.65;;;0.40;;
53285;SDS011;39171;45.550;12.074;2022-08-19T11:16:27;0.77;;;0.57;;
53285;SDS011;39171;45.550;12.074;2022-08-19T11:22:30;0.30;;;0.20;;
53285;SDS011;39171;45.550;12.074;2022-08-19T11:28:32;0.65;;;0.40;;
53285;SDS011;39171;45.550;12.074;2022-08-19T11:34:34;0.70;;;0.40;;
53285;SDS011;39171;45.550;12.074;2022-08-19T11:40:38;0.57;;;0.30;;
53285;SDS011;39171;45.550;12.074;2022-08-19T11:46:41;0.22;;;0.20;;
53285;SDS011;39171;45.550;12.074;2022-08-19T11:52:50;0.90;;;0.40;;
53285;SDS011;39171;45.550;12.074;2022-08-19T11:59:00;0.98;;;0.40;;
53285;SDS011;39171;45.550;12.074;2022-08-19T12:05:02;0.40;;;0.30;;
53285;SDS011;39171;45.550;12.074;2022-08-19T12:11:04;0.43;;;0.30;;
53285;SDS011;39171;45.550;12.074;2022-08-19T12:17:08;0.60;;;0.30;;
53285;SDS011;39171;45.550;12.074;2022-08-19T12:23:10;0.40;;;0.30;;
53285;SDS011;39171;45.550;12.074;2022-08-19T12:37:19;0.45;;;0.30;;
53285;SDS011;39171;45.550;12.074;2022-08-19T12:43:21;0.40;;;0.30;;
53285;SDS011;39171;45.550;12.074;2022-08-19T12:49:23;0.45;;;0.30;;
53285;SDS011;39171;45.550;12.074;2022-08-19T12:55:25;0.52;;;0.20;;
53285;SDS011;39171;45.550;12.074;2022-08-19T13:01:31;0.35;;;0.20;;
53285;SDS011;39171;45.550;12.074;2022-08-19T13:07:40;0.45;;;0.30;;
53285;SDS011;39171;45.550;12.074;2022-08-19T13:13:42;1.50;;;0.70;;
53285;SDS011;39171;45.550;12.074;2022-08-19T13:19:45;1.17;;;0.60;;
53285;SDS011;39171;45.550;12.074;2022-08-19T13:25:55;0.98;;;0.40;;
53285;SDS011;39171;45.550;12.074;2022-08-19T13:31:58;0.70;;;0.40;;
53285;SDS011;39171;45.550;12.074;2022-08-19T13:38:35;0.35;;;0.20;;
53285;SDS011;39171;45.550;12.074;2022-08-19T13:44:38;0.52;;;0.35;;
53285;SDS011;39171;45.550;12.074;2022-08-19T13:50:41;1.27;;;0.50;;
53285;SDS011;39171;45.550;12.074;2022-08-19T14:02:51;0.30;;;0.30;;
53285;SDS011;39171;45.550;12.074;2022-08-19T14:08:54;0.35;;;0.30;;
53285;SDS011;39171;45.550;12.074;2022-08-19T14:14:56;1.15;;;0.60;;
53285;SDS011;39171;45.550;12.074;2022-08-19T14:21:00;1.30;;;0.85;;
53285;SDS011;39171;45.550;12.074;2022-08-19T14:27:01;1.65;;;1.00;;
53285;SDS011;39171;45.550;12.074;2022-08-19T14:33:05;2.03;;;1.30;;
53285;SDS011;39171;45.550;12.074;2022-08-19T14:39:08;1.80;;;1.00;;
53285;SDS011;39171;45.550;12.074;2022-08-19T14:45:10;1.45;;;0.85;;
53285;SDS011;39171;45.550;12.074;2022-08-19T14:51:12;1.05;;;0.73;;
53285;SDS011;39171;45.550;12.074;2022-08-19T14:57:15;1.60;;;0.80;;
53285;SDS011;39171;45.550;12.074;2022-08-19T15:03:16;1.83;;;0.80;;
53285;SDS011;39171;45.550;12.074;2022-08-19T15:09:18;2.50;;;0.70;;
53285;SDS011;39171;45.550;12.074;2022-08-19T15:15:20;0.90;;;0.60;;
53285;SDS011;39171;45.550;12.074;2022-08-19T15:21:23;1.60;;;0.70;;
53285;SDS011;39171;45.550;12.074;2022-08-19T15:27:25;1.92;;;0.77;;
53285;SDS011;39171;45.550;12.074;2022-08-19T15:33:27;1.20;;;0.80;;
53285;SDS011;39171;45.550;12.074;2022-08-19T15:39:32;0.80;;;0.40;;
53285;SDS011;39171;45.550;12.074;2022-08-19T15:45:35;1.20;;;0.55;;
53285;SDS011;39171;45.550;12.074;2022-08-19T15:51:37;0.88;;;0.50;;
53285;SDS011;39171;45.550;12.074;2022-08-19T15:57:41;0.68;;;0.40;;
53285;SDS011;39171;45.550;12.074;2022-08-19T16:04:05;0.50;;;0.30;;
53285;SDS011;39171;45.550;12.074;2022-08-19T16:10:28;0.82;;;0.68;;
53285;SDS011;39171;45.550;12.074;2022-08-19T16:16:31;0.60;;;0.30;;
53285;SDS011;39171;45.550;12.074;2022-08-19T16:22:34;0.90;;;0.45;;
53285;SDS011;39171;45.550;12.074;2022-08-19T16:28:36;0.85;;;0.52;;
53285;SDS011;39171;45.550;12.074;2022-08-19T16:34:44;0.88;;;0.50;;
53285;SDS011;39171;45.550;12.074;2022-08-19T16:40:46;1.50;;;0.60;;
53285;SDS011;39171;45.550;12.074;2022-08-19T16:46:54;0.60;;;0.40;;
53285;SDS011;39171;45.550;12.074;2022-08-19T16:52:59;0.98;;;0.45;;
53285;SDS011;39171;45.550;12.074;2022-08-19T16:59:01;0.60;;;0.50;;
53285;SDS011;39171;45.550;12.074;2022-08-19T17:05:04;1.00;;;0.40;;
53285;SDS011;39171;45.550;12.074;2022-08-19T17:11:11;0.68;;;0.40;;
53285;SDS011;39171;45.550;12.074;2022-08-19T17:17:12;0.40;;;0.40;;
53285;SDS011;39171;45.550;12.074;2022-08-19T17:23:14;0.32;;;0.32;;
53285;SDS011;39171;45.550;12.074;2022-08-19T17:29:16;1.02;;;0.35;;
53285;SDS011;39171;45.550;12.074;2022-08-19T17:35:17;0.60;;;0.40;;
53285;SDS011;39171;45.550;12.074;2022-08-19T17:41:21;0.52;;;0.30;;
53285;SDS011;39171;45.550;12.074;2022-08-19T17:47:24;0.88;;;0.30;;
53285;SDS011;39171;45.550;12.074;2022-08-19T17:53:26;0.50;;;0.30;;
53285;SDS011;39171;45.550;12.074;2022-08-19T17:59:28;0.20;;;0.20;;
53285;SDS011;39171;45.550;12.074;2022-08-19T18:05:31;0.60;;;0.40;;
53285;SDS011;39171;45.550;12.074;2022-08-19T18:11:34;0.60;;;0.38;;
53285;SDS011;39171;45.550;12.074;2022-08-19T18:17:36;1.10;;;0.68;;
53285;SDS011;39171;45.550;12.074;2022-08-19T18:23:38;0.40;;;0.32;;
53285;SDS011;39171;45.550;12.074;2022-08-19T18:29:43;0.75;;;0.50;;
53285;SDS011;39171;45.550;12.074;2022-08-19T18:35:46;1.63;;;0.90;;
53285;SDS011;39171;45.550;12.074;2022-08-19T18:41:49;0.93;;;0.50;;
53285;SDS011;39171;45.550;12.074;2022-08-19T18:48:10;1.40;;;0.57;;
53285;SDS011;39171;45.550;12.074;2022-08-19T18:54:30;1.13;;;0.65;;
53285;SDS011;39171;45.550;12.074;2022-08-19T19:00:32;1.02;;;0.50;;
53285;SDS011;39171;45.550;12.074;2022-08-19T19:06:35;1.13;;;0.65;;
53285;SDS011;39171;45.550;12.074;2022-08-19T19:12:41;2.10;;;0.40;;
53285;SDS011;39171;45.550;12.074;2022-08-19T19:18:44;1.30;;;0.65;;
53285;SDS011;39171;45.550;12.074;2022-08-19T19:24:46;0.90;;;0.70;;
53285;SDS011;39171;45.550;12.074;2022-08-19T19:30:47;0.68;;;0.50;;
53285;SDS011;39171;45.550;12.074;2022-08-19T19:36:50;1.15;;;0.80;;
53285;SDS011;39171;45.550;12.074;2022-08-19T19:42:55;1.92;;;1.13;;
53285;SDS011;39171;45.550;12.074;2022-08-19T19:49:04;1.60;;;0.98;;
53285;SDS011;39171;45.550;12.074;2022-08-19T19:55:07;1.33;;;0.90;;
53285;SDS011;39171;45.550;12.074;2022-08-19T20:01:12;1.30;;;1.00;;
53285;SDS011;39171;45.550;12.074;2022-08-19T20:07:14;1.80;;;1.30;;
53285;SDS011;39171;45.550;12.074;2022-08-19T20:13:16;1.90;;;1.00;;
53285;SDS011;39171;45.550;12.074;2022-08-19T20:19:19;1.70;;;1.20;;
53285;SDS011;39171;45.550;12.074;2022-08-19T20:25:25;2.00;;;1.10;;
53285;SDS011;39171;45.550;12.074;2022-08-19T20:31:28;1.80;;;1.30;;
53285;SDS011;39171;45.550;12.074;2022-08-19T20:37:29;1.67;;;1.10;;
53285;SDS011;39171;45.550;12.074;2022-08-19T20:43:31;1.83;;;1.10;;
53285;SDS011;39171;45.550;12.074;2022-08-19T20:49:34;1.75;;;1.40;;
53285;SDS011;39171;45.550;12.074;2022-08-19T20:55:36;2.45;;;1.35;;
53285;SDS011;39171;45.550;12.074;2022-08-19T21:01:37;1.55;;;1.00;;
53285;SDS011;39171;45.550;12.074;2022-08-19T21:07:39;2.00;;;1.20;;
53285;SDS011;39171;45.550;12.074;2022-08-19T21:13:41;1.88;;;1.30;;
53285;SDS011;39171;45.550;12.074;2022-08-19T21:19:43;1.85;;;1.10;;
53285;SDS011;39171;45.550;12.074;2022-08-19T21:25:44;2.13;;;1.30;;
53285;SDS011;39171;45.550;12.074;2022-08-19T21:31:46;2.35;;;1.50;;
53285;SDS011;39171;45.550;12.074;2022-08-19T21:37:49;1.85;;;1.40;;
53285;SDS011;39171;45.550;12.074;2022-08-19T21:43:51;2.80;;;1.45;;
53285;SDS011;39171;45.550;12.074;2022-08-19T21:49:54;1.90;;;1.30;;
53285;SDS011;39171;45.550;12.074;2022-08-19T21:55:55;2.22;;;1.38;;
53285;SDS011;39171;45.550;12.074;2022-08-19T22:01:57;1.83;;;1.30;;
53285;SDS011;39171;45.550;12.074;2022-08-19T22:07:59;1.60;;;1.00;;
53285;SDS011;39171;45.550;12.074;2022-08-19T22:14:02;2.25;;;1.50;;
53285;SDS011;39171;45.550;12.074;2022-08-19T22:20:04;1.80;;;1.17;;
53285;SDS011;39171;45.550;12.074;2022-08-19T22:26:10;1.70;;;1.10;;
53285;SDS011;39171;45.550;12.074;2022-08-19T22:32:12;1.65;;;1.10;;
53285;SDS011;39171;45.550;12.074;2022-08-19T22:38:17;2.00;;;1.20;;
53285;SDS011;39171;45.550;12.074;2022-08-19T22:44:19;1.70;;;1.17;;
53285;SDS011;39171;45.550;12.074;2022-08-19T22:50:20;1.88;;;1.10;;
53285;SDS011;39171;45.550;12.074;2022-08-19T22:56:21;2.17;;;1.30;;
53285;SDS011;39171;45.550;12.074;2022-08-19T23:02:25;2.25;;;1.60;;
53285;SDS011;39171;45.550;12.074;2022-08-19T23:08:28;2.63;;;1.35;;
53285;SDS011;39171;45.550;12.074;2022-08-19T23:14:31;1.75;;;1.27;;
53285;SDS011;39171;45.550;12.074;2022-08-19T23:20:33;1.80;;;1.17;;
53285;SDS011;39171;45.550;12.074;2022-08-19T23:26:36;1.90;;;1.20;;
53285;SDS011;39171;45.550;12.074;2022-08-19T23:32:38;2.33;;;1.17;;
53285;SDS011;39171;45.550;12.074;2022-08-19T23:38:42;1.73;;;1.25;;
53285;SDS011;39171;45.550;12.074;2022-08-19T23:44:44;2.15;;;1.58;;
53285;SDS011;39171;45.550;12.074;2022-08-19T23:50:46;1.73;;;1.42;;
53285;SDS011;39171;45.550;12.074;2022-08-19T23:56:48;1.58;;;1.17;;
